createdAt,value
2022-10-17T00:01:31.364Z,9.44
2022-10-17T00:03:58.194Z,9.45
2022-10-17T00:06:24.879Z,9.46
2022-10-17T00:08:51.715Z,9.43
2022-10-17T00:11:21.884Z,9.45
2022-10-17T00:13:50.539Z,9.41
2022-10-17T00:16:26.590Z,9.39
2022-10-17T00:18:53.303Z,9.37
2022-10-17T00:21:21.732Z,9.36
2022-10-17T00:23:48.583Z,9.34
2022-10-17T00:26:16.546Z,9.31
2022-10-17T00:28:46.477Z,9.30
2022-10-17T00:31:13.457Z,9.25
2022-10-17T00:33:40.172Z,9.22
2022-10-17T00:36:19.108Z,9.20
2022-10-17T00:38:47.548Z,9.19
2022-10-17T00:41:18.007Z,9.18
2022-10-17T00:43:58.480Z,9.18
2022-10-17T00:46:36.778Z,9.22
2022-10-17T00:49:10.750Z,9.19
2022-10-17T00:51:45.611Z,9.15
2022-10-17T00:54:13.536Z,9.10
2022-10-17T00:56:40.657Z,9.09
2022-10-17T00:59:12.452Z,9.07
2022-10-17T01:01:41.778Z,9.03
2022-10-17T01:04:08.558Z,9.02
2022-10-17T01:06:35.217Z,9.00
2022-10-17T01:09:02.034Z,8.99
2022-10-17T01:11:39.858Z,8.98
2022-10-17T01:14:16.712Z,8.95
2022-10-17T01:16:52.349Z,8.96
2022-10-17T01:19:58.904Z,8.98
2022-10-17T01:23:06.771Z,8.97
2022-10-17T01:25:48.327Z,8.96
2022-10-17T01:28:39.856Z,8.98
2022-10-17T01:31:06.620Z,8.97
2022-10-17T01:34:01.507Z,8.97
2022-10-17T01:36:56.463Z,8.97
2022-10-17T01:40:01.868Z,8.89
2022-10-17T01:42:39.411Z,8.81
2022-10-17T01:45:20.037Z,8.74
2022-10-17T01:47:50.887Z,8.72
2022-10-17T01:50:24.231Z,8.62
2022-10-17T01:52:59.470Z,8.50
2022-10-17T01:55:31.894Z,8.48
2022-10-17T01:58:04.239Z,8.37
2022-10-17T02:00:32.496Z,8.34
2022-10-17T02:03:02.623Z,8.38
2022-10-17T02:05:33.771Z,8.34
2022-10-17T02:08:00.476Z,8.33
2022-10-17T02:10:42.679Z,8.29
2022-10-17T02:13:47.858Z,8.25
2022-10-17T02:16:20.239Z,8.16
2022-10-17T02:18:49.709Z,8.10
2022-10-17T02:21:26.048Z,7.97
2022-10-17T02:23:55.987Z,8.00
2022-10-17T02:26:33.980Z,7.94
2022-10-17T02:29:13.169Z,7.93
2022-10-17T02:31:43.368Z,7.93
2022-10-17T02:34:31.004Z,7.91
2022-10-17T02:37:02.170Z,7.83
2022-10-17T02:39:31.700Z,7.85
2022-10-17T02:42:02.845Z,7.86
2022-10-17T02:44:32.057Z,7.92
2022-10-17T02:47:11.599Z,7.86
2022-10-17T02:49:43.997Z,7.85
2022-10-17T02:52:15.174Z,7.87
2022-10-17T02:55:00.492Z,7.78
2022-10-17T02:57:42.628Z,7.79
2022-10-17T03:00:12.290Z,7.83
2022-10-17T03:02:45.154Z,7.75
2022-10-17T03:05:14.117Z,7.72
2022-10-17T03:07:40.780Z,7.76
2022-10-17T03:10:07.733Z,7.81
2022-10-17T03:12:34.605Z,7.84
2022-10-17T03:15:01.217Z,7.90
2022-10-17T03:17:27.935Z,7.77
2022-10-17T03:19:54.602Z,7.73
2022-10-17T03:22:21.189Z,7.67
2022-10-17T03:24:47.840Z,7.66
2022-10-17T03:27:14.649Z,7.70
2022-10-17T03:29:41.329Z,7.65
2022-10-17T03:32:08.066Z,7.65
2022-10-17T03:34:35.029Z,7.69
2022-10-17T03:37:01.796Z,7.72
2022-10-17T03:39:28.475Z,7.73
2022-10-17T03:41:55.251Z,7.64
2022-10-17T03:44:21.936Z,7.52
2022-10-17T03:46:48.732Z,7.53
2022-10-17T03:49:15.483Z,7.48
2022-10-17T03:51:42.174Z,7.45
2022-10-17T03:54:08.862Z,7.50
2022-10-17T03:56:35.497Z,7.52
2022-10-17T03:59:02.175Z,7.50
2022-10-17T04:01:28.863Z,7.49
2022-10-17T04:03:56.773Z,7.50
2022-10-17T04:06:24.003Z,7.50
2022-10-17T04:08:50.945Z,7.56
2022-10-17T04:11:20.617Z,7.62
2022-10-17T04:13:47.853Z,7.57
2022-10-17T04:16:17.346Z,7.49
2022-10-17T04:18:44.515Z,7.38
2022-10-17T04:21:12.626Z,7.35
2022-10-17T04:23:39.829Z,7.31
2022-10-17T04:26:06.911Z,7.24
2022-10-17T04:28:34.023Z,7.23
2022-10-17T04:31:04.381Z,7.17
2022-10-17T04:33:32.310Z,7.12
2022-10-17T04:36:01.267Z,7.11
2022-10-17T04:38:29.332Z,7.16
2022-10-17T04:41:05.533Z,7.17
2022-10-17T04:43:36.602Z,7.17
2022-10-17T04:46:11.215Z,7.13
2022-10-17T04:48:39.135Z,7.16
2022-10-17T04:51:12.043Z,7.21
2022-10-17T04:53:39.666Z,7.25
2022-10-17T04:56:18.608Z,7.28
2022-10-17T04:58:46.115Z,7.30
2022-10-17T05:01:16.448Z,7.27
2022-10-17T05:03:43.353Z,7.27
2022-10-17T05:06:12.524Z,7.28
2022-10-17T05:08:39.490Z,7.30
2022-10-17T05:11:15.089Z,7.17
2022-10-17T05:13:41.793Z,7.19
2022-10-17T05:16:08.418Z,7.28
2022-10-17T05:18:35.032Z,7.36
2022-10-17T05:21:04.041Z,7.37
2022-10-17T05:23:30.961Z,7.42
2022-10-17T05:25:57.705Z,7.45
2022-10-17T05:28:24.399Z,7.49
2022-10-17T05:30:51.242Z,7.53
2022-10-17T05:33:18.001Z,7.55
2022-10-17T05:35:44.705Z,7.58
2022-10-17T05:38:11.416Z,7.74
2022-10-17T05:40:39.539Z,7.72
2022-10-17T05:43:06.475Z,7.69
2022-10-17T05:45:33.155Z,7.69
2022-10-17T05:47:59.953Z,7.68
2022-10-17T05:50:26.685Z,7.71
2022-10-17T05:52:54.806Z,7.73
2022-10-17T05:55:22.766Z,7.69
2022-10-17T05:57:50.566Z,7.79
2022-10-17T06:00:17.497Z,7.81
2022-10-17T06:02:47.820Z,7.86
2022-10-17T06:05:14.926Z,7.87
2022-10-17T06:07:41.811Z,7.89
2022-10-17T06:10:09.440Z,7.93
2022-10-17T06:12:36.193Z,7.95
2022-10-17T06:15:02.917Z,8.09
2022-10-17T06:17:30.485Z,8.50
2022-10-17T06:19:57.597Z,8.95
2022-10-17T06:22:24.230Z,9.32
2022-10-17T06:24:52.644Z,9.52
2022-10-17T06:27:20.102Z,9.76
2022-10-17T06:29:47.806Z,9.98
2022-10-17T06:32:15.317Z,10.01
2022-10-17T06:34:42.135Z,10.20
2022-10-17T06:37:08.773Z,10.11
2022-10-17T06:39:35.980Z,10.15
2022-10-17T06:42:04.225Z,10.38
2022-10-17T06:44:32.020Z,10.64
2022-10-17T06:46:59.572Z,10.88
2022-10-17T06:49:26.854Z,11.13
2022-10-17T06:51:53.673Z,11.36
2022-10-17T06:54:20.582Z,11.53
2022-10-17T06:56:47.322Z,11.66
2022-10-17T06:59:15.653Z,11.84
2022-10-17T07:01:46.150Z,11.95
2022-10-17T07:04:14.201Z,11.96
2022-10-17T07:06:41.042Z,11.87
2022-10-17T07:09:08.143Z,11.78
2022-10-17T07:11:35.377Z,11.79
2022-10-17T07:14:03.041Z,12.05
2022-10-17T07:16:29.718Z,12.32
2022-10-17T07:18:56.554Z,12.51
2022-10-17T07:21:23.206Z,12.60
2022-10-17T07:23:50.179Z,12.61
2022-10-17T07:26:18.686Z,12.73
2022-10-17T07:28:47.099Z,12.96
2022-10-17T07:31:17.020Z,13.19
2022-10-17T07:36:12.231Z,13.53
2022-10-17T07:38:39.557Z,13.62
2022-10-17T07:41:08.549Z,13.81
2022-10-17T07:43:36.523Z,14.03
2022-10-17T07:46:04.447Z,14.23
2022-10-17T07:48:31.070Z,14.24
2022-10-17T07:50:57.913Z,14.04
2022-10-17T07:53:24.594Z,14.20
2022-10-17T07:55:51.695Z,14.28
2022-10-17T07:58:18.525Z,14.35
2022-10-17T08:00:48.506Z,14.45
2022-10-17T08:03:15.375Z,14.64
2022-10-17T08:05:42.348Z,14.79
2022-10-17T08:08:09.009Z,14.90
2022-10-17T08:10:35.681Z,15.04
2022-10-17T08:13:03.112Z,15.20
2022-10-17T08:15:31.840Z,15.29
2022-10-17T08:17:59.468Z,15.51
2022-10-17T08:20:26.747Z,15.58
2022-10-17T08:22:57.028Z,15.54
2022-10-17T08:25:23.933Z,15.57
2022-10-17T08:27:50.632Z,15.52
2022-10-17T08:30:17.897Z,15.45
2022-10-17T08:32:44.559Z,15.54
2022-10-17T08:35:11.771Z,15.62
2022-10-17T08:37:38.469Z,15.73
2022-10-17T08:40:05.644Z,15.83
2022-10-17T08:42:51.138Z,15.92
2022-10-17T08:45:38.698Z,15.98
2022-10-17T08:48:11.624Z,15.93
2022-10-17T08:51:01.856Z,16.00
2022-10-17T08:53:34.832Z,16.32
2022-10-17T08:56:15.363Z,16.37
2022-10-17T08:58:46.973Z,16.39
2022-10-17T09:01:35.201Z,16.50
2022-10-17T09:04:20.053Z,16.65
2022-10-17T09:07:00.334Z,16.78
2022-10-17T09:09:35.939Z,16.93
2022-10-17T09:12:15.088Z,16.83
2022-10-17T09:15:06.626Z,16.93
2022-10-17T09:17:42.541Z,17.15
2022-10-17T09:20:20.922Z,17.10
2022-10-17T09:23:00.091Z,17.32
2022-10-17T09:25:28.063Z,17.53
2022-10-17T09:28:06.249Z,17.67
2022-10-17T09:30:45.974Z,17.85
2022-10-17T09:33:35.320Z,17.97
2022-10-17T09:36:05.787Z,18.16
2022-10-17T09:38:44.690Z,18.27
2022-10-17T09:41:44.706Z,18.37
2022-10-17T09:44:33.077Z,18.57
2022-10-17T09:47:11.724Z,18.71
2022-10-17T09:49:40.837Z,18.79
2022-10-17T09:52:18.511Z,18.76
2022-10-17T09:54:55.079Z,18.72
2022-10-17T09:57:22.543Z,18.91
2022-10-17T10:00:00.862Z,19.01
2022-10-17T10:02:30.475Z,19.06
2022-10-17T10:05:17.691Z,19.32
2022-10-17T10:08:00.783Z,19.30
2022-10-17T10:10:29.407Z,19.43
2022-10-17T10:13:06.173Z,19.34
2022-10-17T10:15:37.740Z,19.29
2022-10-17T10:21:09.405Z,19.12
2022-10-17T10:23:40.847Z,19.41
2022-10-17T10:26:35.661Z,19.51
2022-10-17T10:29:05.874Z,19.72
2022-10-17T10:31:37.235Z,19.60
2022-10-17T10:34:20.549Z,19.49
2022-10-17T10:36:53.041Z,19.18
2022-10-17T10:39:34.439Z,19.32
2022-10-17T10:42:03.281Z,19.41
2022-10-17T10:44:32.248Z,19.52
2022-10-17T10:47:21.966Z,19.58
2022-10-17T10:49:51.683Z,19.43
2022-10-17T10:52:28.494Z,19.51
2022-10-17T10:55:19.851Z,19.52
2022-10-17T10:57:49.269Z,19.62
2022-10-17T11:00:21.273Z,19.69
2022-10-17T11:03:21.935Z,19.65
2022-10-17T11:05:54.156Z,19.59
2022-10-17T11:08:48.384Z,19.57
2022-10-17T11:11:28.479Z,19.42
2022-10-17T11:14:20.842Z,19.43
2022-10-17T11:17:10.502Z,19.50
2022-10-17T11:19:44.773Z,19.27
2022-10-17T11:22:29.134Z,19.25
2022-10-17T11:25:25.438Z,19.25
2022-10-17T11:27:52.074Z,19.23
2022-10-17T11:30:19.358Z,19.30
2022-10-17T11:33:01.139Z,19.12
2022-10-17T11:35:38.076Z,19.01
2022-10-17T11:38:18.750Z,18.98
2022-10-17T11:40:51.505Z,18.92
2022-10-17T11:43:31.315Z,18.90
2022-10-17T11:46:19.139Z,18.79
2022-10-17T11:48:58.579Z,18.84
2022-10-17T11:54:39.099Z,18.77
2022-10-17T11:57:24.457Z,18.72
2022-10-17T12:00:22.243Z,18.71
2022-10-17T12:03:22.854Z,18.67
2022-10-17T12:05:52.842Z,18.66
2022-10-17T12:08:57.628Z,18.63
2022-10-17T12:11:37.212Z,18.63
2022-10-17T12:14:23.911Z,18.61
2022-10-17T12:16:51.088Z,18.56
2022-10-17T12:19:24.909Z,18.53
2022-10-17T12:21:56.339Z,18.55
2022-10-17T12:24:44.138Z,18.58
2022-10-17T12:27:39.909Z,18.47
2022-10-17T12:30:12.751Z,18.49
2022-10-17T12:33:07.571Z,18.44
2022-10-17T12:35:36.988Z,18.43
2022-10-17T12:38:29.971Z,18.40
2022-10-17T12:40:57.863Z,18.34
2022-10-17T12:43:27.478Z,18.28
2022-10-17T12:46:02.636Z,18.27
2022-10-17T12:48:38.570Z,18.20
2022-10-17T12:51:35.294Z,18.21
2022-10-17T12:54:02.364Z,18.09
2022-10-17T12:56:36.445Z,18.03
2022-10-17T12:59:27.970Z,17.98
2022-10-17T13:02:04.168Z,17.96
2022-10-17T13:04:31.986Z,18.01
2022-10-17T13:07:01.108Z,17.97
2022-10-17T13:09:37.764Z,17.90
2022-10-17T13:12:11.932Z,17.93
2022-10-17T13:14:41.090Z,17.83
2022-10-17T13:17:20.587Z,17.79
2022-10-17T13:19:47.295Z,17.77
2022-10-17T13:22:26.030Z,17.78
2022-10-17T13:25:06.535Z,17.74
2022-10-17T13:27:36.072Z,17.73
2022-10-17T13:30:32.009Z,17.65
2022-10-17T13:32:59.829Z,17.63
2022-10-17T13:35:58.762Z,17.54
2022-10-17T13:38:28.941Z,17.43
2022-10-17T13:41:01.949Z,17.38
2022-10-17T13:43:38.901Z,17.55
2022-10-17T13:46:32.583Z,17.40
2022-10-17T13:48:53.544Z,17.36
2022-10-17T13:51:20.427Z,17.27
2022-10-17T13:53:47.040Z,17.16
2022-10-17T13:56:27.824Z,17.19
2022-10-17T13:59:05.129Z,17.14
2022-10-17T14:01:32.337Z,17.11
2022-10-17T14:04:19.485Z,17.07
2022-10-17T14:06:49.679Z,16.83
2022-10-17T14:09:21.239Z,16.77
2022-10-17T14:12:12.856Z,16.64
2022-10-17T14:15:08.704Z,16.59
2022-10-17T14:17:30.164Z,16.58
2022-10-17T14:20:34.426Z,16.45
2022-10-17T14:23:17.496Z,16.38
2022-10-17T14:25:40.425Z,16.27
2022-10-17T14:28:14.159Z,16.24
2022-10-17T14:30:56.412Z,16.11
2022-10-17T14:33:28.532Z,16.06
2022-10-17T14:35:57.622Z,16.01
2022-10-17T14:38:25.318Z,15.97
2022-10-17T14:41:30.581Z,15.90
2022-10-17T14:44:00.885Z,15.88
2022-10-17T14:46:28.053Z,15.82
2022-10-17T14:49:07.547Z,15.82
2022-10-17T14:51:44.833Z,15.76
2022-10-17T14:54:32.765Z,15.72
2022-10-17T14:56:59.539Z,15.68
2022-10-17T14:59:52.266Z,15.65
2022-10-17T15:02:13.704Z,15.64
2022-10-17T15:04:40.581Z,15.62
2022-10-17T15:07:07.387Z,15.55
2022-10-17T15:09:34.001Z,15.51
2022-10-17T15:12:05.142Z,15.40
2022-10-17T15:14:31.899Z,15.37
2022-10-17T15:16:58.478Z,15.37
2022-10-17T15:19:25.077Z,15.38
2022-10-17T15:21:51.712Z,15.36
2022-10-17T15:24:18.332Z,15.35
2022-10-17T15:26:45.018Z,15.37
2022-10-17T15:29:16.182Z,15.32
2022-10-17T15:31:42.991Z,15.24
2022-10-17T15:34:09.613Z,15.17
2022-10-17T15:36:40.996Z,15.16
2022-10-17T15:39:07.931Z,15.10
2022-10-17T15:41:34.724Z,15.08
2022-10-17T15:44:01.556Z,14.98
2022-10-17T15:46:30.858Z,14.96
2022-10-17T15:49:02.533Z,14.89
2022-10-17T15:51:29.249Z,14.86
2022-10-17T15:53:55.973Z,14.81
2022-10-17T15:56:26.528Z,14.75
2022-10-17T15:58:53.496Z,14.72
2022-10-17T16:01:24.874Z,14.67
2022-10-17T16:03:52.104Z,14.61
2022-10-17T16:06:20.225Z,14.54
2022-10-17T16:08:48.064Z,14.45
2022-10-17T16:11:42.487Z,14.42
2022-10-17T16:14:15.006Z,14.37
2022-10-17T16:16:41.846Z,14.32
2022-10-17T16:19:09.117Z,14.24
2022-10-17T16:21:38.391Z,14.22
2022-10-17T16:24:06.373Z,14.19
2022-10-17T16:26:33.177Z,14.21
2022-10-17T16:29:02.978Z,14.16
2022-10-17T16:31:34.864Z,14.09
2022-10-17T16:34:02.975Z,14.09
2022-10-17T16:36:29.683Z,14.02
2022-10-17T16:38:56.443Z,13.98
2022-10-17T16:41:24.510Z,13.98
2022-10-17T16:43:53.235Z,13.92
2022-10-17T16:46:20.754Z,13.87
2022-10-17T16:48:47.851Z,13.83
2022-10-17T16:51:16.477Z,13.77
2022-10-17T16:53:45.775Z,13.74
2022-10-17T16:56:14.941Z,13.74
2022-10-17T16:58:42.874Z,13.68
2022-10-17T17:01:13.103Z,13.59
2022-10-17T17:03:42.131Z,13.56
2022-10-17T17:06:12.250Z,13.55
2022-10-17T17:08:39.052Z,13.51
2022-10-17T17:11:10.691Z,13.47
2022-10-17T17:13:37.780Z,13.45
2022-10-17T17:16:12.952Z,13.43
2022-10-17T17:18:40.296Z,13.40
2022-10-17T17:21:09.279Z,13.37
2022-10-17T17:23:38.109Z,13.36
2022-10-17T17:26:07.927Z,13.29
2022-10-17T17:28:35.522Z,13.27
2022-10-17T17:31:02.650Z,13.22
2022-10-17T17:33:30.245Z,13.18
2022-10-17T17:36:01.272Z,13.14
2022-10-17T17:38:33.397Z,13.10
2022-10-17T17:41:00.622Z,13.09
2022-10-17T17:43:27.981Z,13.09
2022-10-17T17:45:54.680Z,13.06
2022-10-17T17:48:21.808Z,13.03
2022-10-17T17:50:49.216Z,13.00
2022-10-17T17:53:17.017Z,13.00
2022-10-17T17:55:43.723Z,12.95
2022-10-17T17:58:12.356Z,12.94
2022-10-17T18:00:40.682Z,12.93
2022-10-17T18:03:07.834Z,12.94
2022-10-17T18:05:34.573Z,12.92
2022-10-17T18:08:01.387Z,12.92
2022-10-17T18:10:29.492Z,12.94
2022-10-17T18:12:56.215Z,12.91
2022-10-17T18:15:22.916Z,12.92
2022-10-17T18:17:49.714Z,12.94
2022-10-17T18:20:16.479Z,12.92
2022-10-17T18:22:43.103Z,12.91
2022-10-17T18:25:09.847Z,12.95
2022-10-17T18:27:36.805Z,12.94
2022-10-17T18:30:04.124Z,12.96
2022-10-17T18:32:32.291Z,13.00
2022-10-17T18:34:59.207Z,13.03
2022-10-17T18:37:25.939Z,13.06
2022-10-17T18:39:55.328Z,13.09
2022-10-17T18:42:22.006Z,13.15
2022-10-17T18:44:48.897Z,13.18
2022-10-17T18:47:16.299Z,13.19
2022-10-17T18:49:43.033Z,13.22
2022-10-17T18:52:09.723Z,13.26
2022-10-17T18:54:36.402Z,13.29
2022-10-17T18:57:03.148Z,13.29
2022-10-17T18:59:29.813Z,13.31
2022-10-17T19:01:56.515Z,13.36
2022-10-17T19:04:23.332Z,13.35
2022-10-17T19:06:50.013Z,13.35
2022-10-17T19:09:16.767Z,13.38
2022-10-17T19:11:43.685Z,13.40
2022-10-17T19:14:15.505Z,13.39
2022-10-17T19:16:45.351Z,13.40
2022-10-17T19:19:15.084Z,13.40
2022-10-17T19:21:42.572Z,13.41
2022-10-17T19:24:16.418Z,13.43
2022-10-17T19:26:44.413Z,13.45
2022-10-17T19:29:15.617Z,13.48
2022-10-17T19:31:42.939Z,13.48
2022-10-17T19:34:11.130Z,13.49
2022-10-17T19:36:38.494Z,13.50
2022-10-17T19:39:08.665Z,13.52
2022-10-17T19:41:36.464Z,13.52
2022-10-17T19:44:03.551Z,13.54
2022-10-17T19:46:31.510Z,13.55
2022-10-17T19:48:58.511Z,13.54
2022-10-17T19:51:26.357Z,13.53
2022-10-17T19:53:54.919Z,13.54
2022-10-17T19:56:23.168Z,13.55
2022-10-17T19:58:50.810Z,13.56
2022-10-17T20:01:21.027Z,13.56
2022-10-17T20:03:47.888Z,13.56
2022-10-17T20:06:15.249Z,13.56
2022-10-17T20:08:42.256Z,13.54
2022-10-17T20:11:16.974Z,13.54
2022-10-17T20:13:44.885Z,13.53
2022-10-17T20:16:15.245Z,13.52
2022-10-17T20:18:42.552Z,13.48
2022-10-17T20:21:15.343Z,13.46
2022-10-17T20:23:43.373Z,13.43
2022-10-17T20:26:26.069Z,13.43
2022-10-17T20:29:02.183Z,13.42
2022-10-17T20:31:29.211Z,13.39
2022-10-17T20:33:57.281Z,13.25
2022-10-17T20:36:24.571Z,13.14
2022-10-17T20:38:55.876Z,13.00
2022-10-17T20:41:23.495Z,12.93
2022-10-17T20:43:52.082Z,12.93
2022-10-17T20:46:35.109Z,12.88
2022-10-17T20:49:03.885Z,12.78
2022-10-17T20:51:30.562Z,12.66
2022-10-17T20:56:29.942Z,12.45
2022-10-17T20:59:00.405Z,12.44
2022-10-17T21:01:28.204Z,12.39
2022-10-17T21:03:55.071Z,12.28
2022-10-17T21:06:22.190Z,12.25
2022-10-17T21:08:49.500Z,12.27
2022-10-17T21:11:22.550Z,12.18
2022-10-17T21:13:58.433Z,12.09
2022-10-17T21:16:26.490Z,11.99
2022-10-17T21:18:53.843Z,11.88
2022-10-17T21:21:24.722Z,11.85
2022-10-17T21:23:51.672Z,11.87
2022-10-17T21:26:18.764Z,11.86
2022-10-17T21:28:46.784Z,11.82
2022-10-17T21:31:22.713Z,11.83
2022-10-17T21:33:54.436Z,11.85
2022-10-17T21:36:21.719Z,11.82
2022-10-17T21:38:50.134Z,11.80
2022-10-17T21:41:19.694Z,11.79
2022-10-17T21:43:47.143Z,11.77
2022-10-17T21:46:16.506Z,11.75
2022-10-17T21:48:44.334Z,11.75
2022-10-17T21:51:13.897Z,11.72
2022-10-17T21:53:41.232Z,11.70
2022-10-17T21:56:11.107Z,11.68
2022-10-17T21:58:38.024Z,11.62
2022-10-17T22:01:10.217Z,11.60
2022-10-17T22:03:42.659Z,11.59
2022-10-17T22:09:00.912Z,11.53
2022-10-17T22:11:31.307Z,11.44
2022-10-17T22:14:02.025Z,11.45
2022-10-17T22:16:28.954Z,11.45
2022-10-17T22:19:06.178Z,11.43
2022-10-17T22:21:35.539Z,11.39
2022-10-17T22:24:06.121Z,11.30
2022-10-17T22:26:35.015Z,11.31
2022-10-17T22:29:02.165Z,11.33
2022-10-17T22:31:28.886Z,11.32
2022-10-17T22:33:55.860Z,11.32
2022-10-17T22:36:22.832Z,11.32
2022-10-17T22:38:49.585Z,11.30
2022-10-17T22:41:16.342Z,11.27
2022-10-17T22:43:43.052Z,11.26
2022-10-17T22:46:10.501Z,11.23
2022-10-17T22:48:37.120Z,11.21
2022-10-17T22:51:03.792Z,11.21
2022-10-17T22:53:30.498Z,11.18
2022-10-17T22:56:01.873Z,11.16
2022-10-17T22:58:30.545Z,11.16
2022-10-17T23:00:57.645Z,11.13
2022-10-17T23:03:26.469Z,11.11
2022-10-17T23:05:53.159Z,11.11
2022-10-17T23:08:19.786Z,11.09
2022-10-17T23:10:47.519Z,11.07
2022-10-17T23:13:16.786Z,11.02
2022-10-17T23:15:43.632Z,10.99
2022-10-17T23:18:10.418Z,10.95
2022-10-17T23:20:37.806Z,10.95
2022-10-17T23:23:04.633Z,10.92
2022-10-17T23:25:33.664Z,10.88
2022-10-17T23:28:00.744Z,10.87
2022-10-17T23:30:27.650Z,10.84
2022-10-17T23:32:54.272Z,10.84
2022-10-17T23:35:20.890Z,10.84
2022-10-17T23:37:47.545Z,10.85
2022-10-17T23:40:14.385Z,10.82
2022-10-17T23:42:41.097Z,10.81
2022-10-17T23:45:08.483Z,10.81
2022-10-17T23:47:35.107Z,10.77
2022-10-17T23:50:01.873Z,10.75
2022-10-17T23:52:28.479Z,10.67
2022-10-17T23:54:55.089Z,10.67
2022-10-17T23:57:21.797Z,10.66
2022-10-17T23:59:48.413Z,10.65
